メインページ
METAR-TAF:

METAR-TAF

空港 :

Jimmy Lake, サスカチュワン州, カナダ

緯度: 54-55N, 経度: 109-57W, 海抜: 658m

現時点の気象観測

当レポートは43分前の09:00(UTC)に作成
北/北西の風 10kt、西/北西からの間で変化する
気温 -6°C
湿度 73%
気圧 1017 hPa
視程: 14.5km
高度1600ftの雲はほとんどない
高度6600ftの千切れ雲あり

METAR: CWHN 140900Z AUTO 33010KT 290V010 9SM FEW016 BKN066 M06/M10 A3003 RMK SLP209

時間: 03:43 (09:43 UTC)


TAF: 見つかりません

4,000以上の空港の気象観測と天気予報(METAR報とTAF報)

利用可能な観測所は地図上に黄色い丸と赤い丸で示す。

丸の上にカーソルを重ねると観測所名を参照できる。

次にクリックすると気象観測と天気予報を参照できる。

マップの切り替え:黒色「×」印の緑ボタンをクリックして拡大、「-」印の緑ボタンをクリックして縮小、緑色の三角印をクリックして隣りの地図に切り替え


METAR-TAF: